Time;durP1;ratioP1;P1;durP2;ratioP2;P2;SDS_P1;SDS_P2;PMS_P1;PMS_P2;Temp;Humidity;BMP_temperature;BMP_pressure;BME280_temperature;BME280_humidity;BME280_pressure;Samples;Min_cycle;Max_cycle;Signal;HPM_P1;HPM_P2
2023/07/10 00:00:20;;;;;;;8.98;6.43;;;25.10;66.70;;;;;;4995420;28;20030;-68
2023/07/10 00:02:45;;;;;;;8.70;6.45;;;25.10;66.70;;;;;;4996230;28;20038;-66
2023/07/10 00:05:14;;;;;;;9.80;6.32;;;25.10;66.70;;;;;;4995566;28;20066;-66
2023/07/10 00:07:40;;;;;;;8.98;6.43;;;25.10;66.70;;;;;;4996186;28;20127;-68
2023/07/10 00:10:12;;;;;;;9.02;6.50;;;25.10;66.70;;;;;;4995882;28;20081;-67
2023/07/10 00:12:40;;;;;;;9.85;6.60;;;25.10;66.70;;;;;;4994705;28;20117;-68
2023/07/10 00:15:18;;;;;;;9.93;7.10;;;25.00;66.80;;;;;;4994617;28;20444;-67
2023/07/10 00:17:49;;;;;;;14.77;7.28;;;25.00;67.00;;;;;;4994952;28;20033;-68
2023/07/10 00:20:18;;;;;;;10.63;7.20;;;25.00;67.10;;;;;;4995544;28;20041;-67
2023/07/10 00:22:44;;;;;;;13.60;7.20;;;25.00;67.20;;;;;;4995811;28;20348;-68
2023/07/10 00:25:15;;;;;;;10.23;7.20;;;24.90;67.20;;;;;;4995399;28;20030;-66
2023/07/10 00:27:43;;;;;;;9.70;6.88;;;24.90;67.40;;;;;;4995502;28;20026;-68
2023/07/10 00:30:23;;;;;;;11.32;6.97;;;24.90;67.50;;;;;;4995483;28;20037;-68
2023/07/10 00:32:54;;;;;;;10.43;7.47;;;24.90;67.80;;;;;;4995982;28;20033;-68
2023/07/10 00:35:23;;;;;;;9.15;7.13;;;24.90;67.70;;;;;;4995582;28;20031;-68
2023/07/10 00:38:02;;;;;;;10.27;7.30;;;24.80;67.80;;;;;;4995841;28;20054;-66
2023/07/10 00:40:32;;;;;;;11.50;7.80;;;24.80;68.00;;;;;;4998218;28;20026;-68
2023/07/10 00:43:03;;;;;;;13.85;7.95;;;24.70;68.10;;;;;;4999086;28;20049;-68
2023/07/10 00:45:28;;;;;;;11.32;7.57;;;24.70;68.20;;;;;;4999272;28;20026;-66
2023/07/10 00:48:12;;;;;;;11.30;7.40;;;24.60;68.30;;;;;;4998063;28;20027;-68
2023/07/10 00:50:48;;;;;;;10.00;7.07;;;24.60;68.50;;;;;;4999515;28;20034;-68
2023/07/10 00:53:32;;;;;;;10.25;7.10;;;24.60;68.50;;;;;;4999263;28;20041;-66
2023/07/10 00:56:00;;;;;;;11.95;8.85;;;24.50;68.90;;;;;;4998996;28;20033;-68
2023/07/10 00:58:52;;;;;;;12.68;9.20;;;24.50;69.00;;;;;;4997822;28;20105;-68
2023/07/10 01:01:20;;;;;;;11.15;8.25;;;24.50;69.80;;;;;;4996812;28;20110;-66
2023/07/10 01:03:51;;;;;;;12.68;8.02;;;24.50;69.20;;;;;;4998556;28;20448;-68
2023/07/10 01:06:44;;;;;;;13.70;8.73;;;24.40;69.30;;;;;;4998558;28;20026;-66
2023/07/10 01:09:10;;;;;;;13.10;8.90;;;24.40;69.50;;;;;;4999198;28;20026;-66
2023/07/10 01:11:37;;;;;;;11.52;8.23;;;24.30;69.70;;;;;;4998879;28;20432;-68
2023/07/10 01:14:05;;;;;;;12.98;8.60;;;24.30;69.70;;;;;;4998509;28;20081;-66
2023/07/10 01:16:31;;;;;;;10.57;7.07;;;24.30;69.80;;;;;;4998940;28;20425;-66
2023/07/10 01:18:58;;;;;;;10.30;7.07;;;24.20;69.70;;;;;;4997733;28;20030;-66
2023/07/10 01:21:30;;;;;;;10.40;7.70;;;24.20;69.80;;;;;;4998391;28;20038;-66
2023/07/10 01:23:58;;;;;;;13.00;7.68;;;24.20;69.70;;;;;;4998684;28;20034;-68
2023/07/10 01:26:24;;;;;;;10.75;7.70;;;24.20;69.90;;;;;;4998266;28;20018;-67
2023/07/10 01:28:53;;;;;;;10.40;7.50;;;24.20;70.00;;;;;;4998217;28;20030;-66
2023/07/10 01:31:20;;;;;;;9.90;6.95;;;24.20;70.00;;;;;;4998210;28;20034;-68
2023/07/10 01:33:52;;;;;;;10.35;7.53;;;24.20;70.00;;;;;;4998175;28;20038;-67
2023/07/10 01:36:23;;;;;;;14.15;8.35;;;24.20;70.20;;;;;;4997938;28;20046;-68
2023/07/10 01:39:02;;;;;;;12.98;8.18;;;24.20;70.30;;;;;;4998007;28;20049;-66
2023/07/10 01:41:39;;;;;;;13.23;8.55;;;24.10;70.40;;;;;;4998311;28;20060;-68
2023/07/10 01:44:28;;;;;;;11.68;7.85;;;24.00;70.40;;;;;;4997981;28;20368;-65
2023/07/10 01:46:56;;;;;;;14.13;8.73;;;24.10;70.70;;;;;;4998213;28;20018;-66
2023/07/10 01:49:26;;;;;;;12.27;8.27;;;24.00;70.50;;;;;;4997831;28;20077;-66
2023/07/10 01:51:54;;;;;;;14.23;9.77;;;24.00;70.50;;;;;;4997101;28;20030;-66
2023/07/10 01:54:20;;;;;;;14.85;10.70;;;24.00;70.70;;;;;;4998095;28;20030;-66
2023/07/10 01:56:46;;;;;;;13.30;9.73;;;24.00;70.90;;;;;;4997987;28;20045;-67
2023/07/10 01:59:12;;;;;;;13.10;9.05;;;23.90;71.10;;;;;;4997649;28;20026;-68
2023/07/10 02:01:39;;;;;;;12.65;8.40;;;23.90;71.30;;;;;;4997692;28;20023;-69
2023/07/10 02:04:04;;;;;;;10.38;7.32;;;23.90;71.30;;;;;;4997621;28;20455;-67
2023/07/10 02:06:34;;;;;;;12.18;7.80;;;23.90;71.30;;;;;;4997551;28;20077;-67
2023/07/10 02:09:00;;;;;;;11.20;7.85;;;23.90;71.30;;;;;;4996630;28;20125;-66
2023/07/10 02:11:26;;;;;;;11.98;8.20;;;23.90;71.30;;;;;;4998000;28;20337;-68
2023/07/10 02:13:52;;;;;;;10.77;8.13;;;23.90;71.40;;;;;;4997764;28;20030;-66
2023/07/10 02:16:18;;;;;;;11.65;7.90;;;23.90;71.40;;;;;;4997443;28;20058;-67
2023/07/10 02:18:44;;;;;;;12.88;8.77;;;23.90;71.50;;;;;;4997334;28;20026;-67
2023/07/10 02:21:10;;;;;;;12.90;7.93;;;23.90;71.50;;;;;;4996426;28;20022;-66
2023/07/10 02:23:38;;;;;;;12.80;8.15;;;23.90;71.50;;;;;;4997333;28;20444;-68
2023/07/10 02:26:05;;;;;;;11.15;8.00;;;23.80;71.70;;;;;;4997232;28;20015;-68
2023/07/10 02:28:31;;;;;;;11.60;8.63;;;23.80;71.70;;;;;;4997167;28;20367;-67
2023/07/10 02:30:57;;;;;;;11.38;8.90;;;23.80;71.70;;;;;;4996118;28;20034;-68
2023/07/10 02:33:23;;;;;;;12.35;8.90;;;23.80;71.80;;;;;;4997091;28;20022;-67
2023/07/10 02:35:50;;;;;;;15.15;9.77;;;23.70;71.90;;;;;;4996883;28;20572;-66
2023/07/10 02:38:16;;;;;;;12.68;9.20;;;23.80;72.00;;;;;;4996877;28;20026;-68
2023/07/10 02:40:44;;;;;;;10.75;8.88;;;23.80;72.00;;;;;;4996954;28;20041;-68
2023/07/10 02:43:10;;;;;;;10.80;8.73;;;23.70;72.00;;;;;;4997157;28;20034;-67
2023/07/10 02:45:36;;;;;;;11.32;8.80;;;23.70;72.00;;;;;;4996766;28;20030;-68
2023/07/10 02:48:03;;;;;;;17.92;9.07;;;23.70;72.10;;;;;;4997288;28;20057;-68
2023/07/10 02:50:29;;;;;;;14.02;9.68;;;23.70;72.10;;;;;;4996762;28;20030;-67
2023/07/10 02:52:55;;;;;;;14.13;9.43;;;23.70;72.20;;;;;;4997231;28;20116;-68
2023/07/10 02:55:21;;;;;;;14.43;9.63;;;23.60;72.20;;;;;;4996759;28;20053;-67
2023/07/10 02:57:47;;;;;;;12.93;9.80;;;23.60;72.30;;;;;;4996562;28;20448;-68
2023/07/10 03:00:13;;;;;;;12.55;9.95;;;23.60;72.40;;;;;;4996584;28;20065;-68
2023/07/10 03:02:41;;;;;;;12.18;9.30;;;23.60;72.50;;;;;;4996623;28;20022;-66
2023/07/10 03:05:08;;;;;;;16.23;11.55;;;23.60;72.60;;;;;;4996907;28;20085;-66
2023/07/10 03:07:34;;;;;;;10.65;9.18;;;23.60;72.70;;;;;;4996695;28;20018;-67
2023/07/10 03:10:00;;;;;;;13.05;9.25;;;23.60;72.80;;;;;;4996915;28;20278;-68
2023/07/10 03:12:26;;;;;;;13.10;8.82;;;23.60;72.80;;;;;;4996355;28;20026;-66
2023/07/10 03:14:52;;;;;;;12.43;9.07;;;23.50;72.80;;;;;;4995591;28;20030;-68
2023/07/10 03:17:18;;;;;;;12.70;9.15;;;23.50;72.80;;;;;;4996811;28;20019;-67
2023/07/10 03:19:45;;;;;;;15.52;11.93;;;23.50;72.80;;;;;;4995305;28;20042;-66
2023/07/10 03:22:11;;;;;;;12.98;9.65;;;23.50;73.10;;;;;;4996717;28;20322;-68
2023/07/10 03:24:37;;;;;;;13.30;9.70;;;23.50;73.10;;;;;;4996577;28;20109;-66
2023/07/10 03:27:04;;;;;;;15.20;10.05;;;23.40;73.10;;;;;;4996660;28;20022;-68
2023/07/10 03:29:30;;;;;;;14.20;10.38;;;23.40;73.20;;;;;;4996090;28;20026;-68
2023/07/10 03:31:55;;;;;;;14.18;9.98;;;23.40;73.10;;;;;;4996586;28;20037;-67
2023/07/10 03:34:21;;;;;;;12.48;9.82;;;23.40;73.20;;;;;;4996316;28;20022;-67
2023/07/10 03:36:48;;;;;;;14.02;9.82;;;23.40;73.20;;;;;;4995684;28;20062;-67
2023/07/10 03:39:13;;;;;;;16.00;10.95;;;23.40;73.30;;;;;;4995884;28;20030;-69
2023/07/10 03:41:40;;;;;;;14.10;11.00;;;23.40;73.30;;;;;;4996190;28;20305;-68
2023/07/10 03:44:06;;;;;;;13.50;10.43;;;23.40;73.40;;;;;;4996159;28;20106;-66
2023/07/10 03:46:32;;;;;;;14.85;11.10;;;23.40;73.40;;;;;;4995860;28;20454;-69
2023/07/10 03:48:58;;;;;;;15.35;11.48;;;23.40;73.40;;;;;;4996396;28;20113;-68
2023/07/10 03:51:24;;;;;;;14.73;11.25;;;23.40;73.50;;;;;;4996119;28;20173;-66
2023/07/10 03:53:50;;;;;;;13.82;11.07;;;23.40;73.50;;;;;;4996070;28;20321;-68
2023/07/10 03:56:16;;;;;;;15.48;12.30;;;23.40;73.50;;;;;;4995832;28;20085;-69
2023/07/10 03:58:44;;;;;;;16.23;11.85;;;23.40;73.60;;;;;;4995729;28;20515;-66
2023/07/10 04:01:11;;;;;;;16.90;13.00;;;23.40;73.50;;;;;;4995997;28;20018;-68
2023/07/10 04:03:38;;;;;;;18.85;13.15;;;23.40;73.60;;;;;;4995733;28;20027;-68
2023/07/10 04:06:06;;;;;;;17.83;14.20;;;23.40;73.60;;;;;;4994780;28;20022;-66
2023/07/10 04:08:34;;;;;;;15.65;12.68;;;23.40;73.70;;;;;;4995954;28;20053;-69
2023/07/10 04:11:06;;;;;;;18.45;14.13;;;23.50;73.70;;;;;;4995683;28;20040;-68
2023/07/10 04:13:33;;;;;;;17.27;13.52;;;23.50;73.50;;;;;;4996238;28;20030;-66
2023/07/10 04:15:59;;;;;;;17.10;13.57;;;23.50;73.60;;;;;;4999703;28;20026;-67
2023/07/10 04:18:35;;;;;;;18.80;13.60;;;23.60;73.40;;;;;;4999800;28;20032;-68
2023/07/10 04:21:09;;;;;;;16.27;13.10;;;23.70;73.50;;;;;;4999821;28;20038;-68
2023/07/10 04:23:34;;;;;;;16.90;13.40;;;23.70;73.30;;;;;;4998991;28;20049;-68
2023/07/10 04:26:00;;;;;;;18.55;13.95;;;23.80;73.20;;;;;;4999674;28;20061;-69
2023/07/10 04:28:26;;;;;;;21.58;15.43;;;23.90;73.10;;;;;;4999968;28;20515;-69
2023/07/10 04:30:53;;;;;;;17.02;13.70;;;24.00;73.00;;;;;;4999363;28;20109;-67
2023/07/10 04:33:20;;;;;;;19.30;16.90;;;24.10;72.80;;;;;;4999303;28;20057;-67
2023/07/10 04:35:54;;;;;;;20.48;13.50;;;24.20;72.80;;;;;;4999245;28;20054;-68
2023/07/10 04:38:26;;;;;;;19.77;14.98;;;24.30;72.60;;;;;;4999420;28;20018;-69
2023/07/10 04:41:00;;;;;;;21.17;15.05;;;24.40;72.50;;;;;;5014622;28;20436;-68
2023/07/10 04:43:28;;;;;;;17.08;13.43;;;24.60;72.20;;;;;;4998243;28;20123;-68
2023/07/10 04:45:55;;;;;;;21.30;16.02;;;24.80;72.10;;;;;;4999010;28;20023;-68
2023/07/10 04:48:22;;;;;;;20.70;14.23;;;25.00;72.30;;;;;;4999079;28;20027;-66
2023/07/10 04:50:51;;;;;;;18.30;14.68;;;25.10;71.80;;;;;;4998988;28;20105;-65
2023/07/10 04:53:18;;;;;;;23.65;16.88;;;25.30;71.60;;;;;;4998050;28;20444;-67
2023/07/10 04:55:47;;;;;;;20.60;16.60;;;25.60;71.60;;;;;;4998955;28;20046;-66
2023/07/10 04:58:14;;;;;;;20.42;16.30;;;26.20;70.90;;;;;;4998807;28;20056;-68
2023/07/10 05:00:40;;;;;;;18.45;13.73;;;27.00;69.60;;;;;;4999100;28;20054;-68
2023/07/10 05:03:07;;;;;;;19.83;13.15;;;28.00;67.60;;;;;;4998754;28;20030;-66
2023/07/10 05:05:33;;;;;;;17.88;12.85;;;28.90;65.40;;;;;;4997921;28;20034;-68
2023/07/10 05:08:00;;;;;;;18.23;14.15;;;29.90;63.50;;;;;;4997782;28;20571;-67
2023/07/10 05:10:27;;;;;;;18.67;12.23;;;30.60;61.70;;;;;;4998570;28;20031;-66
2023/07/10 05:12:53;;;;;;;15.63;13.10;;;31.00;60.10;;;;;;4999125;28;20030;-67
2023/07/10 05:15:22;;;;;;;15.52;11.77;;;31.30;58.90;;;;;;4998713;28;20046;-68
2023/07/10 05:17:48;;;;;;;15.45;11.45;;;31.80;58.00;;;;;;4998679;28;20037;-67
2023/07/10 05:20:14;;;;;;;16.42;11.30;;;32.40;56.80;;;;;;4998423;28;20329;-65
2023/07/10 05:22:41;;;;;;;13.52;10.48;;;32.90;55.70;;;;;;4997406;28;20352;-65
2023/07/10 05:25:08;;;;;;;13.50;10.50;;;33.10;55.00;;;;;;4998232;28;20030;-66
2023/07/10 05:27:34;;;;;;;13.20;9.73;;;33.20;54.40;;;;;;4998367;28;20112;-67
2023/07/10 05:30:00;;;;;;;12.80;9.65;;;33.50;53.70;;;;;;4998594;28;20030;-65
2023/07/10 05:32:26;;;;;;;12.70;9.80;;;34.00;52.80;;;;;;4998527;28;20022;-65
2023/07/10 05:34:53;;;;;;;12.65;8.98;;;34.50;51.60;;;;;;4998405;28;20456;-66
2023/07/10 05:37:18;;;;;;;15.63;10.00;;;35.20;50.50;;;;;;4997909;28;20042;-68
2023/07/10 05:39:44;;;;;;;14.10;9.18;;;35.90;49.10;;;;;;4998312;28;20081;-66
2023/07/10 05:42:12;;;;;;;13.00;9.02;;;36.40;47.80;;;;;;4998338;28;20042;-65
2023/07/10 05:44:38;;;;;;;12.43;8.55;;;37.10;46.70;;;;;;4998178;28;20034;-65
2023/07/10 05:47:05;;;;;;;10.27;7.70;;;37.60;45.70;;;;;;4998496;28;20348;-68
2023/07/10 05:49:31;;;;;;;12.52;7.65;;;38.30;44.60;;;;;;4997896;28;20077;-67
2023/07/10 05:51:57;;;;;;;10.35;7.45;;;38.90;43.50;;;;;;4998144;28;20031;-67
2023/07/10 05:54:23;;;;;;;11.73;6.95;;;39.80;42.40;;;;;;4997433;28;20105;-67
2023/07/10 05:56:49;;;;;;;11.43;5.88;;;40.50;41.00;;;;;;4997674;28;20121;-66
2023/07/10 05:59:15;;;;;;;10.10;6.47;;;41.30;39.90;;;;;;4998243;28;20030;-66
2023/07/10 06:01:42;;;;;;;10.57;6.50;;;42.00;38.70;;;;;;4998207;28;20026;-68
2023/07/10 06:04:07;;;;;;;10.63;6.38;;;42.70;37.40;;;;;;4996277;28;20030;-67
2023/07/10 06:06:34;;;;;;;10.07;6.07;;;43.30;36.50;;;;;;4997333;28;20022;-65
2023/07/10 06:09:00;;;;;;;8.25;5.80;;;43.90;35.20;;;;;;4997544;28;20037;-65
2023/07/10 06:11:26;;;;;;;8.63;6.00;;;44.30;34.50;;;;;;4996629;28;20018;-66
2023/07/10 06:13:52;;;;;;;9.40;5.80;;;44.80;33.90;;;;;;4997704;28;20033;-67
2023/07/10 06:16:18;;;;;;;9.68;5.63;;;45.20;33.10;;;;;;4997098;28;20308;-65
2023/07/10 06:18:43;;;;;;;9.13;5.95;;;45.50;32.60;;;;;;4996261;28;20045;-65
2023/07/10 06:21:10;;;;;;;8.18;6.00;;;45.60;32.20;;;;;;4997321;28;20448;-67
2023/07/10 06:23:36;;;;;;;7.90;6.13;;;45.90;31.60;;;;;;4997758;28;20030;-66
2023/07/10 06:26:03;;;;;;;8.32;6.30;;;45.90;30.90;;;;;;4996200;28;20118;-66
2023/07/10 06:28:31;;;;;;;9.38;5.90;;;45.60;30.30;;;;;;4997128;28;20026;-67
2023/07/10 06:31:06;;;;;;;8.70;6.18;;;45.40;30.50;;;;;;4997369;28;20030;-66
2023/07/10 06:33:33;;;;;;;9.75;5.70;;;45.50;30.50;;;;;;4997584;28;20085;-65
2023/07/10 06:35:59;;;;;;;11.30;6.20;;;45.90;30.30;;;;;;4996841;28;20061;-66
2023/07/10 06:38:26;;;;;;;10.77;6.63;;;46.20;29.90;;;;;;4995468;28;20435;-68
2023/07/10 06:40:52;;;;;;;11.07;6.60;;;46.40;29.60;;;;;;4996946;28;20041;-68
2023/07/10 06:43:19;;;;;;;8.70;6.13;;;46.80;29.10;;;;;;4997100;28;20054;-66
2023/07/10 06:45:45;;;;;;;9.45;7.47;;;47.10;28.60;;;;;;4996949;28;20015;-67
2023/07/10 06:48:11;;;;;;;10.95;6.82;;;47.00;28.10;;;;;;4997007;28;20037;-66
2023/07/10 06:50:38;;;;;;;11.82;7.10;;;46.50;28.40;;;;;;4996762;28;20368;-67
2023/07/10 06:53:04;;;;;;;9.05;7.13;;;45.60;29.30;;;;;;4996915;28;20045;-66
2023/07/10 06:55:31;;;;;;;10.57;7.63;;;44.40;30.30;;;;;;4996568;28;20106;-68
2023/07/10 06:57:57;;;;;;;9.70;7.13;;;43.00;31.70;;;;;;4996548;28;20457;-67
2023/07/10 07:00:23;;;;;;;13.88;8.18;;;41.70;33.20;;;;;;4996818;28;20019;-67
2023/07/10 07:02:49;;;;;;;11.57;7.80;;;40.60;34.70;;;;;;4996546;28;20026;-66
2023/07/10 07:05:16;;;;;;;10.45;7.45;;;39.50;36.20;;;;;;4996656;28;20110;-68
2023/07/10 07:07:42;;;;;;;10.82;6.60;;;38.70;37.50;;;;;;4996686;28;20018;-69
2023/07/10 07:10:14;;;;;;;10.45;7.30;;;38.20;38.70;;;;;;4996928;28;20092;-68
2023/07/10 07:12:42;;;;;;;11.43;7.57;;;37.80;39.50;;;;;;4996297;28;20089;-69
2023/07/10 07:15:10;;;;;;;10.52;7.32;;;37.40;40.10;;;;;;4996434;28;20018;-68
2023/07/10 07:17:37;;;;;;;11.07;7.18;;;36.90;40.80;;;;;;4996194;28;20026;-66
2023/07/10 07:20:03;;;;;;;9.68;7.03;;;36.60;41.50;;;;;;4996752;28;20334;-68
2023/07/10 07:22:29;;;;;;;10.38;7.65;;;36.40;41.90;;;;;;4979015;28;20030;-68
2023/07/10 07:24:55;;;;;;;9.52;7.10;;;36.40;42.10;;;;;;4996536;28;20076;-67
2023/07/10 07:27:22;;;;;;;9.90;6.90;;;36.40;42.40;;;;;;4996350;28;20073;-66
2023/07/10 07:29:51;;;;;;;9.48;6.93;;;36.40;42.70;;;;;;4996324;28;20061;-66
2023/07/10 07:32:18;;;;;;;11.00;7.05;;;36.20;42.80;;;;;;4995924;28;20368;-67
2023/07/10 07:34:45;;;;;;;12.95;8.57;;;36.30;43.00;;;;;;4978720;28;20033;-68
2023/07/10 07:37:11;;;;;;;10.85;7.43;;;36.20;42.90;;;;;;4994661;28;20490;-66
2023/07/10 07:39:37;;;;;;;8.70;6.82;;;36.10;43.10;;;;;;4995871;28;20026;-66
2023/07/10 07:42:03;;;;;;;11.10;7.68;;;36.10;43.30;;;;;;4995855;28;20459;-67
2023/07/10 07:44:29;;;;;;;10.27;6.68;;;36.10;43.30;;;;;;4996077;28;20092;-68
2023/07/10 07:46:57;;;;;;;9.25;6.70;;;36.00;43.50;;;;;;4995878;28;20448;-68
2023/07/10 07:49:24;;;;;;;8.52;6.82;;;35.90;43.60;;;;;;4995560;28;20109;-66
2023/07/10 07:51:52;;;;;;;10.07;7.55;;;36.00;43.50;;;;;;4995768;28;20477;-68
2023/07/10 07:54:18;;;;;;;10.45;7.10;;;36.00;43.20;;;;;;4994863;28;20030;-66
2023/07/10 07:56:44;;;;;;;9.02;6.72;;;36.00;43.20;;;;;;4995684;28;20030;-66
2023/07/10 07:59:10;;;;;;;8.80;6.57;;;36.10;43.30;;;;;;4995915;28;20409;-67
2023/07/10 08:01:36;;;;;;;11.90;6.97;;;36.20;43.10;;;;;;4995946;28;20077;-68
2023/07/10 08:04:03;;;;;;;9.23;6.82;;;36.30;42.70;;;;;;4994736;28;20019;-66
2023/07/10 08:06:31;;;;;;;10.43;6.88;;;36.40;42.50;;;;;;4994681;28;20058;-66
2023/07/10 08:08:57;;;;;;;8.20;6.28;;;36.40;42.30;;;;;;4995854;28;20037;-66
2023/07/10 08:11:24;;;;;;;10.98;6.10;;;36.40;42.30;;;;;;4995607;28;20325;-66
2023/07/10 08:13:50;;;;;;;9.93;6.55;;;36.40;42.00;;;;;;4995842;28;20026;-66
2023/07/10 08:16:16;;;;;;;8.75;6.15;;;36.30;42.20;;;;;;4995531;28;20096;-67
2023/07/10 08:18:42;;;;;;;9.07;6.75;;;36.20;42.20;;;;;;4995717;28;20075;-68
2023/07/10 08:21:11;;;;;;;9.38;6.40;;;36.30;42.20;;;;;;4995778;28;20447;-68
2023/07/10 08:23:37;;;;;;;9.07;6.43;;;36.40;42.40;;;;;;4994689;28;20018;-65
2023/07/10 08:26:04;;;;;;;10.52;7.05;;;36.40;42.40;;;;;;4995708;28;20057;-68
2023/07/10 08:28:30;;;;;;;10.73;7.07;;;36.50;42.30;;;;;;4995715;28;20019;-67
2023/07/10 08:30:57;;;;;;;11.68;7.55;;;36.40;42.10;;;;;;4995427;28;20045;-67
2023/07/10 08:33:23;;;;;;;10.52;7.05;;;36.30;42.00;;;;;;4995427;28;20337;-65
2023/07/10 08:36:05;;;;;;;9.23;6.60;;;36.10;42.00;;;;;;4995532;28;20440;-67
2023/07/10 08:38:33;;;;;;;13.02;6.70;;;35.90;42.40;;;;;;4995004;28;20044;-65
2023/07/10 08:41:01;;;;;;;10.10;6.57;;;35.80;42.70;;;;;;4994468;28;20019;-65
2023/07/10 08:43:37;;;;;;;9.82;5.90;;;35.80;42.90;;;;;;4994761;28;20022;-67
2023/07/10 08:46:09;;;;;;;10.63;7.00;;;35.90;42.80;;;;;;4994254;28;20399;-67
2023/07/10 08:48:46;;;;;;;9.77;6.22;;;35.90;42.50;;;;;;4995454;28;20038;-67
2023/07/10 08:51:15;;;;;;;9.57;6.50;;;35.80;42.70;;;;;;4995244;28;20159;-67
2023/07/10 08:53:45;;;;;;;9.55;6.60;;;35.80;42.70;;;;;;4994231;28;20066;-67
2023/07/10 08:56:42;;;;;;;12.40;8.93;;;35.90;42.70;;;;;;4994333;28;20518;-67
2023/07/10 08:59:27;;;;;;;9.00;6.78;;;35.90;42.60;;;;;;4994150;28;20034;-67
2023/07/10 09:01:55;;;;;;;11.18;7.47;;;35.80;42.90;;;;;;4997987;28;20088;-65
2023/07/10 09:04:22;;;;;;;14.90;8.77;;;35.80;43.10;;;;;;4998886;28;20030;-67
2023/07/10 09:06:59;;;;;;;9.23;7.40;;;35.80;43.30;;;;;;4998644;28;20050;-67
2023/07/10 09:09:41;;;;;;;9.93;7.03;;;35.70;43.40;;;;;;4997864;28;20061;-66
2023/07/10 09:12:13;;;;;;;9.70;7.30;;;35.60;43.50;;;;;;4997767;28;20117;-67
2023/07/10 09:14:46;;;;;;;12.07;8.05;;;35.60;43.60;;;;;;4998816;28;20046;-66
2023/07/10 09:17:30;;;;;;;;;;;35.60;43.60;;;;;;4999487;28;20054;-66
2023/07/10 09:19:59;;;;;;;11.45;7.60;;;35.50;43.80;;;;;;4997386;28;19910;-66
2023/07/10 09:22:25;;;;;;;11.38;7.28;;;35.50;43.90;;;;;;4998957;28;20101;-67
2023/07/10 09:24:51;;;;;;;12.95;6.97;;;35.50;43.90;;;;;;4998710;28;20027;-68
2023/07/10 09:27:17;;;;;;;10.70;7.45;;;35.60;43.70;;;;;;4998137;28;20474;-67
2023/07/10 09:29:48;;;;;;;9.95;6.35;;;35.50;43.60;;;;;;4998800;28;20069;-66
2023/07/10 09:32:17;;;;;;;9.45;7.18;;;35.50;43.70;;;;;;4998539;28;20189;-66
2023/07/10 09:34:53;;;;;;;9.43;6.20;;;35.40;43.40;;;;;;4997316;28;20026;-68
2023/07/10 09:37:30;;;;;;;11.82;7.20;;;35.20;43.60;;;;;;4996996;28;20054;-67
2023/07/10 09:39:56;;;;;;;11.35;7.50;;;35.20;43.70;;;;;;4998108;28;20026;-68
2023/07/10 09:42:33;;;;;;;10.77;7.05;;;35.10;44.00;;;;;;4998127;28;20019;-68
2023/07/10 09:45:07;;;;;;;9.43;6.47;;;35.00;44.10;;;;;;4997802;28;20336;-66
2023/07/10 09:47:43;;;;;;;9.45;6.88;;;34.90;44.40;;;;;;4998300;28;20441;-66
2023/07/10 09:50:15;;;;;;;9.68;7.10;;;35.00;44.60;;;;;;4998465;28;20440;-67
2023/07/10 09:52:42;;;;;;;11.13;7.00;;;35.10;44.60;;;;;;4997331;28;20046;-66
2023/07/10 09:55:08;;;;;;;10.43;6.82;;;35.10;44.30;;;;;;4997785;28;20061;-67
2023/07/10 09:57:59;;;;;;;9.68;6.75;;;35.10;44.50;;;;;;4997806;28;20026;-68
2023/07/10 10:00:26;;;;;;;9.95;7.03;;;35.10;44.50;;;;;;4997787;28;20057;-68
2023/07/10 10:03:08;;;;;;;9.77;7.28;;;35.10;44.70;;;;;;4997981;28;20076;-66
2023/07/10 10:05:41;;;;;;;10.68;7.57;;;35.10;44.70;;;;;;4997822;28;20023;-66
2023/07/10 10:08:25;;;;;;;;;;;35.10;44.90;;;;;;4998013;28;20030;-67
2023/07/10 10:11:01;;;;;;;12.85;7.80;;;35.00;44.90;;;;;;4997859;28;19913;-68
2023/07/10 10:13:29;;;;;;;10.65;6.45;;;35.00;45.10;;;;;;4995767;28;20371;-67
2023/07/10 10:16:13;;;;;;;11.25;6.50;;;35.00;45.30;;;;;;4997507;28;20023;-68
2023/07/10 10:19:24;;;;;;;11.18;7.43;;;35.10;45.40;;;;;;4997283;28;20030;-68
2023/07/10 10:21:50;;;;;;;12.52;7.60;;;35.20;45.30;;;;;;4997823;28;20026;-67
2023/07/10 10:24:17;;;;;;;9.55;7.60;;;35.20;45.10;;;;;;4997226;28;20027;-66
2023/07/10 10:27:09;;;;;;;10.15;7.35;;;34.90;45.30;;;;;;4996317;28;20026;-66
2023/07/10 10:30:06;;;;;;;10.18;7.65;;;34.80;45.60;;;;;;4997182;28;20114;-67
2023/07/10 10:32:50;;;;;;;12.10;8.15;;;34.70;46.00;;;;;;4997379;28;20057;-68
2023/07/10 10:35:22;;;;;;;11.88;7.97;;;34.70;46.30;;;;;;4997559;28;20026;-67
2023/07/10 10:38:03;;;;;;;10.48;7.25;;;34.70;46.40;;;;;;4996040;28;20057;-68
2023/07/10 10:40:51;;;;;;;11.25;7.50;;;34.80;46.40;;;;;;4997540;28;20022;-66
2023/07/10 10:43:38;;;;;;;13.15;8.00;;;34.70;46.50;;;;;;4995990;28;20023;-69
2023/07/10 10:46:32;;;;;;;12.73;8.00;;;34.60;46.70;;;;;;4997065;28;20150;-69
2023/07/10 10:49:24;;;;;;;10.88;7.80;;;34.50;46.90;;;;;;4997288;28;20436;-67
2023/07/10 10:51:50;;;;;;;9.63;7.13;;;34.50;47.10;;;;;;4997276;28;20443;-67
2023/07/10 10:54:22;;;;;;;15.70;8.10;;;34.50;47.20;;;;;;4996680;28;20030;-68
2023/07/10 10:57:27;;;;;;;13.23;7.40;;;34.50;47.40;;;;;;4997137;28;20415;-66
2023/07/10 11:00:21;;;;;;;9.98;7.20;;;34.60;47.30;;;;;;4996419;28;20035;-66
2023/07/10 11:03:27;;;;;;;10.02;7.03;;;34.50;47.30;;;;;;4996537;28;20022;-68
2023/07/10 11:05:56;;;;;;;10.98;8.23;;;34.50;47.30;;;;;;4995494;28;20026;-67
2023/07/10 11:08:33;;;;;;;12.32;8.10;;;34.60;47.30;;;;;;4995588;28;20034;-67
2023/07/10 11:11:04;;;;;;;13.43;8.18;;;34.60;47.30;;;;;;4996710;28;20026;-68
2023/07/10 11:13:36;;;;;;;11.35;7.55;;;34.50;47.20;;;;;;4996890;28;20428;-65
2023/07/10 11:16:05;;;;;;;9.77;7.13;;;34.50;47.30;;;;;;4996308;28;20451;-65
2023/07/10 11:18:32;;;;;;;10.20;7.55;;;34.60;47.30;;;;;;4996724;28;20026;-67
2023/07/10 11:21:01;;;;;;;10.95;7.68;;;34.70;47.20;;;;;;4995249;28;20030;-67
2023/07/10 11:23:56;;;;;;;12.68;8.10;;;34.70;46.80;;;;;;4996087;28;20026;-67
2023/07/10 11:26:27;;;;;;;10.55;7.57;;;34.70;46.50;;;;;;4975307;28;20047;-65
2023/07/10 11:29:30;;;;;;;10.82;7.70;;;34.50;46.50;;;;;;4974997;28;20054;-67
2023/07/10 11:32:00;;;;;;;9.88;7.50;;;34.50;46.70;;;;;;4974902;28;20026;-67
2023/07/10 11:34:25;;;;;;;11.30;7.45;;;34.50;47.10;;;;;;4975225;28;20055;-67
2023/07/10 11:36:51;;;;;;;10.93;7.47;;;34.60;47.10;;;;;;4974589;28;20054;-67
2023/07/10 11:39:30;;;;;;;9.57;6.80;;;34.70;47.00;;;;;;4974794;28;20027;-68
2023/07/10 11:42:02;;;;;;;10.23;7.10;;;34.80;46.90;;;;;;4974844;28;20049;-67
2023/07/10 11:44:34;;;;;;;9.32;7.07;;;35.00;46.80;;;;;;4975230;28;20046;-67
2023/07/10 11:47:22;;;;;;;9.63;7.05;;;35.10;46.70;;;;;;4975359;28;20045;-66
2023/07/10 11:49:50;;;;;;;11.23;7.45;;;35.30;46.40;;;;;;4974720;28;20050;-67
2023/07/10 11:52:16;;;;;;;10.43;7.20;;;35.30;46.10;;;;;;4974723;28;20039;-67
2023/07/10 11:54:48;;;;;;;11.82;7.00;;;35.20;46.10;;;;;;4975127;28;20461;-67
2023/07/10 11:57:23;;;;;;;11.60;7.60;;;35.10;46.10;;;;;;4975347;28;20344;-67
2023/07/10 12:00:08;;;;;;;10.50;7.18;;;35.10;46.00;;;;;;4974789;28;20039;-67
2023/07/10 12:02:46;;;;;;;9.80;6.78;;;35.10;46.10;;;;;;4975643;28;20080;-65
2023/07/10 12:05:19;;;;;;;8.95;6.43;;;35.20;46.10;;;;;;4976161;28;20042;-67
2023/07/10 12:07:56;;;;;;;11.30;7.15;;;35.20;46.20;;;;;;4976496;28;20023;-67
2023/07/10 12:10:24;;;;;;;9.65;7.25;;;35.30;46.20;;;;;;4976440;28;20102;-67
2023/07/10 12:12:51;;;;;;;11.43;7.22;;;35.30;45.80;;;;;;4976677;28;20094;-67
2023/07/10 12:15:18;;;;;;;12.13;7.35;;;35.30;45.80;;;;;;4976121;28;20046;-67
2023/07/10 12:17:44;;;;;;;8.95;6.88;;;35.20;45.80;;;;;;4976312;28;20027;-65
2023/07/10 12:20:32;;;;;;;10.63;7.07;;;35.10;45.60;;;;;;4959043;28;20022;-66
2023/07/10 12:23:14;;;;;;;8.60;6.93;;;35.00;45.80;;;;;;4976511;28;20027;-66
2023/07/10 12:25:50;;;;;;;10.65;7.22;;;35.00;45.90;;;;;;4976232;28;20030;-68
2023/07/10 12:28:18;;;;;;;9.10;6.90;;;35.00;45.20;;;;;;4976340;28;20453;-68
2023/07/10 12:30:51;;;;;;;8.98;6.53;;;35.00;45.60;;;;;;4976497;28;20026;-66
2023/07/10 12:33:31;;;;;;;12.50;6.90;;;35.00;45.90;;;;;;4975636;28;20027;-66
2023/07/10 12:36:19;;;;;;;8.80;6.80;;;35.10;45.70;;;;;;4982684;28;20064;-67
2023/07/10 12:38:45;;;;;;;10.88;7.35;;;35.00;45.40;;;;;;4999144;28;20044;-66
2023/07/10 12:41:11;;;;;;;10.07;6.82;;;34.90;45.40;;;;;;4999424;28;20038;-67
2023/07/10 12:43:37;;;;;;;10.45;6.50;;;34.80;45.60;;;;;;4999659;28;20019;-68
2023/07/10 12:46:16;;;;;;;9.63;6.95;;;34.70;45.90;;;;;;4998993;28;20105;-66
2023/07/10 12:48:43;;;;;;;9.23;6.38;;;34.80;46.10;;;;;;4998664;28;20030;-67
2023/07/10 12:51:18;;;;;;;9.70;6.90;;;34.90;45.90;;;;;;4999212;28;20030;-66
2023/07/10 12:53:44;;;;;;;9.75;6.75;;;35.00;45.60;;;;;;4999230;28;20109;-67